Time;durP1;ratioP1;P1;durP2;ratioP2;P2;SDS_P1;SDS_P2;PMS_P1;PMS_P2;Temp;Humidity;BMP_temperature;BMP_pressure;BME280_temperature;BME280_humidity;BME280_pressure;Samples;Min_cycle;Max_cycle;Signal;HPM_P1;HPM_P2
2021/07/08 00:01:19;;;;;;;1999.90;999.90;;;;;;;20.29;83.23;98685.22;5085082;28;20048;-65
2021/07/08 00:03:45;;;;;;;1999.90;999.90;;;;;;;20.35;82.63;98685.66;5086258;28;20052;-65
2021/07/08 00:06:15;;;;;;;1999.90;999.90;;;;;;;20.16;83.58;98687.44;5071786;28;20044;-65
2021/07/08 00:08:41;;;;;;;1999.90;999.90;;;;;;;19.99;84.42;98682.41;5084783;28;20078;-64
2021/07/08 00:11:08;;;;;;;1999.90;999.90;;;;;;;20.27;83.34;98687.56;5084842;28;20047;-64
2021/07/08 00:13:34;;;;;;;1999.90;999.90;;;;;;;20.21;83.59;98683.50;5079416;28;20430;-64
2021/07/08 00:16:01;;;;;;;1999.90;999.90;;;;;;;20.01;84.48;98692.06;5079511;28;20437;-65
2021/07/08 00:18:29;;;;;;;1999.90;999.90;;;;;;;19.89;85.21;98692.31;5077735;28;20041;-65
2021/07/08 00:20:55;;;;;;;1999.90;999.90;;;;;;;19.94;85.06;98691.97;5072474;28;20118;-65
2021/07/08 00:23:23;;;;;;;1999.90;999.90;;;;;;;20.20;83.99;98677.06;5086844;28;20044;-65
2021/07/08 00:25:55;;;;;;;1999.90;999.90;;;;;;;20.12;84.24;98683.78;5083168;28;20264;-65
2021/07/08 00:28:22;;;;;;;1999.90;999.90;;;;;;;19.94;85.46;98696.78;5084712;28;20089;-65
2021/07/08 00:30:50;;;;;;;1999.90;999.90;;;;;;;19.97;85.02;98691.22;5081919;28;20476;-65
2021/07/08 00:33:17;;;;;;;1999.90;999.90;;;;;;;19.64;86.57;98689.94;5080477;28;20044;-65
2021/07/08 00:35:44;;;;;;;1999.90;999.90;;;;;;;19.82;86.31;98681.00;5089111;28;20044;-65
2021/07/08 00:38:11;;;;;;;1999.90;999.90;;;;;;;19.95;85.42;98687.97;5086905;28;20040;-65
2021/07/08 00:40:38;;;;;;;1999.90;999.90;;;;;;;19.85;86.25;98680.22;5086020;28;20056;-64
2021/07/08 00:43:05;;;;;;;1999.90;999.90;;;;;;;19.90;85.87;98691.09;5074733;28;20105;-65
2021/07/08 00:45:32;;;;;;;1999.90;999.90;;;;;;;19.93;85.42;98697.97;5078348;28;20103;-64
2021/07/08 00:47:59;;;;;;;1999.90;999.90;;;;;;;20.12;84.40;98706.25;5079708;28;20079;-65
2021/07/08 00:50:32;;;;;;;1999.90;999.90;;;;;;;20.06;84.52;98705.75;5074382;28;20052;-65
2021/07/08 00:52:59;;;;;;;1999.90;999.90;;;;;;;19.94;85.09;98696.78;5080273;28;20126;-65
2021/07/08 00:55:25;;;;;;;1999.90;999.90;;;;;;;20.15;84.33;98701.88;5082377;28;20437;-65
2021/07/08 00:57:52;;;;;;;1999.90;999.90;;;;;;;19.91;85.21;98706.75;5082022;28;20087;-65
2021/07/08 01:00:22;;;;;;;1999.90;999.90;;;;;;;19.77;85.82;98712.13;5079791;28;20110;-65
2021/07/08 01:02:49;;;;;;;1999.90;999.90;;;;;;;19.93;85.26;98715.59;5082380;28;20093;-65
2021/07/08 01:05:27;;;;;;;1999.90;999.90;;;;;;;19.83;85.82;98710.66;5081122;28;20360;-65
2021/07/08 01:07:54;;;;;;;1999.90;999.90;;;;;;;19.65;86.39;98714.00;5088382;28;20044;-65
2021/07/08 01:10:21;;;;;;;1999.90;999.90;;;;;;;19.87;85.80;98719.94;5087091;28;20056;-65
2021/07/08 01:12:48;;;;;;;1999.90;999.90;;;;;;;19.88;85.52;98721.56;5092669;28;20044;-65
2021/07/08 01:15:15;;;;;;;1999.90;999.90;;;;;;;19.62;86.92;98711.94;5085051;28;20089;-65
2021/07/08 01:17:46;;;;;;;1999.90;999.90;;;;;;;19.75;86.45;98709.72;5083297;28;20101;-65
2021/07/08 01:20:16;;;;;;;1999.90;999.90;;;;;;;19.96;85.46;98714.84;5085332;28;20413;-65
2021/07/08 01:22:44;;;;;;;1999.90;999.90;;;;;;;20.00;85.22;98707.28;5077809;28;20059;-65
2021/07/08 01:25:13;;;;;;;1999.90;999.90;;;;;;;19.94;85.22;98714.44;5090329;28;20083;-65
2021/07/08 01:27:39;;;;;;;1999.90;999.90;;;;;;;19.77;86.05;98712.97;5092005;28;20275;-65
2021/07/08 01:30:08;;;;;;;1999.90;999.90;;;;;;;19.90;85.70;98707.94;5076532;28;20376;-64
2021/07/08 01:32:35;;;;;;;1999.90;999.90;;;;;;;19.92;85.68;98713.19;5081380;28;20110;-65
2021/07/08 01:35:03;;;;;;;1999.90;999.90;;;;;;;20.17;84.47;98713.50;5083402;28;20052;-65
2021/07/08 01:37:29;;;;;;;1999.90;999.90;;;;;;;20.11;84.56;98692.59;5093113;28;20117;-65
2021/07/08 01:39:59;;;;;;;1999.90;999.90;;;;;;;20.40;83.28;98690.94;5081897;28;20609;-65
2021/07/08 01:42:29;;;;;;;1999.90;999.90;;;;;;;20.26;83.70;98702.81;5079617;28;20044;-65
2021/07/08 01:44:57;;;;;;;1999.90;999.90;;;;;;;20.10;84.46;98711.44;5074261;28;20450;-65
2021/07/08 01:47:23;;;;;;;1999.90;999.90;;;;;;;20.13;84.24;98710.66;5080487;28;20071;-65
2021/07/08 01:49:50;;;;;;;1999.90;999.90;;;;;;;19.90;85.29;98715.56;5086936;28;20048;-65
2021/07/08 01:52:17;;;;;;;1999.90;999.90;;;;;;;19.82;85.59;98712.66;5092355;28;20048;-65
2021/07/08 01:54:43;;;;;;;1999.90;999.90;;;;;;;19.81;85.88;98722.25;5080252;28;20121;-65
2021/07/08 01:57:10;;;;;;;1999.90;999.90;;;;;;;19.78;85.86;98725.00;5088135;28;20055;-65
2021/07/08 01:59:36;;;;;;;1999.90;999.90;;;;;;;19.66;86.43;98724.00;5075126;28;20417;-64
2021/07/08 02:02:03;;;;;;;1999.90;999.90;;;;;;;19.74;86.63;98738.16;5082074;28;20094;-65
2021/07/08 02:04:30;;;;;;;1999.90;999.90;;;;;;;19.35;87.88;98745.56;5081974;28;20341;-65
2021/07/08 02:06:57;;;;;;;1999.90;999.90;;;;;;;19.28;88.32;98762.28;5058588;28;20056;-65
2021/07/08 02:09:23;;;;;;;1999.90;999.90;;;;;;;18.56;93.07;98766.50;5087205;28;20044;-65
2021/07/08 02:11:50;;;;;;;1999.90;999.90;;;;;;;19.06;91.53;98766.69;5079056;28;20499;-64
2021/07/08 02:14:16;;;;;;;1999.90;999.90;;;;;;;19.22;90.59;98762.94;5079637;28;20044;-65
2021/07/08 02:16:44;;;;;;;1999.90;999.90;;;;;;;19.53;89.34;98762.69;5077001;28;20106;-65
2021/07/08 02:19:11;;;;;;;1999.90;999.90;;;;;;;19.47;89.16;98757.75;5082308;28;20055;-64
2021/07/08 02:21:37;;;;;;;1999.90;999.90;;;;;;;19.22;89.93;98775.00;5077896;28;20397;-65
2021/07/08 02:24:04;;;;;;;1999.90;999.90;;;;;;;19.39;89.11;98762.44;5076306;28;20060;-64
2021/07/08 02:26:31;;;;;;;1999.90;999.90;;;;;;;19.69;87.91;98767.34;5081832;28;20437;-64
2021/07/08 02:28:57;;;;;;;1999.90;999.90;;;;;;;19.82;87.42;98756.75;5086412;28;20109;-65
2021/07/08 02:31:24;;;;;;;1999.90;999.90;;;;;;;19.96;86.48;98748.50;5079947;28;20044;-65
2021/07/08 02:33:51;;;;;;;1999.90;999.90;;;;;;;19.97;85.81;98758.56;5087748;28;20048;-66
2021/07/08 02:36:17;;;;;;;1999.90;999.90;;;;;;;19.62;87.00;98762.44;5081425;28;20433;-64
2021/07/08 02:38:44;;;;;;;1999.90;999.90;;;;;;;19.96;86.07;98759.75;5085913;28;20044;-64
2021/07/08 02:41:11;;;;;;;1999.90;999.90;;;;;;;20.11;85.54;98760.78;5084024;28;20040;-64
2021/07/08 02:43:37;;;;;;;1999.90;999.90;;;;;;;20.35;84.05;98764.28;5083497;28;20083;-64
2021/07/08 02:46:04;;;;;;;1999.90;999.90;;;;;;;20.67;82.45;98749.84;5081321;28;20106;-64
2021/07/08 02:48:31;;;;;;;1999.90;999.90;;;;;;;20.89;81.29;98751.69;5083384;28;20044;-64
2021/07/08 02:50:58;;;;;;;1999.90;999.90;;;;;;;20.95;80.85;98740.13;5077602;28;20442;-64
2021/07/08 02:53:24;;;;;;;1999.90;999.90;;;;;;;20.70;81.64;98730.22;5076953;28;20048;-64
2021/07/08 02:55:52;;;;;;;1999.90;999.90;;;;;;;20.79;81.42;98729.91;5089842;28;20056;-64
2021/07/08 02:58:19;;;;;;;1999.90;999.90;;;;;;;20.55;81.77;98740.47;5088510;28;20126;-64
2021/07/08 03:00:48;;;;;;;1999.90;999.90;;;;;;;20.80;80.76;98725.91;5082129;28;20048;-64
2021/07/08 03:03:15;;;;;;;1999.90;999.90;;;;;;;20.51;81.09;98719.13;5092852;28;20043;-64
2021/07/08 03:05:42;;;;;;;1999.90;999.90;;;;;;;20.63;81.31;98735.72;5084815;28;20414;-64
2021/07/08 03:08:10;;;;;;;1999.90;999.90;;;;;;;20.67;80.34;98742.22;5070892;28;20090;-64
2021/07/08 03:10:38;;;;;;;1999.90;999.90;;;;;;;20.41;81.53;98737.50;5068483;28;20105;-64
2021/07/08 03:13:04;;;;;;;1999.90;999.90;;;;;;;20.71;80.49;98745.91;5081396;28;20117;-64
2021/07/08 03:15:32;;;;;;;1999.90;999.90;;;;;;;20.89;79.64;98734.84;5081965;28;20052;-64
2021/07/08 03:18:00;;;;;;;1999.90;999.90;;;;;;;20.56;81.02;98732.84;5079250;28;20044;-64
2021/07/08 03:20:30;;;;;;;1999.90;999.90;;;;;;;20.12;82.97;98713.84;5080761;28;20109;-64
2021/07/08 03:22:56;;;;;;;1999.90;999.90;;;;;;;20.06;83.17;98710.56;5081695;28;20048;-64
2021/07/08 03:25:23;;;;;;;1999.90;999.90;;;;;;;20.09;82.96;98703.41;5080221;28;20445;-64
2021/07/08 03:27:51;;;;;;;1999.90;999.90;;;;;;;20.48;81.75;98703.84;5086493;28;20097;-64
2021/07/08 03:30:20;;;;;;;1999.90;999.90;;;;;;;20.67;81.09;98707.72;5077540;28;20279;-64
2021/07/08 03:32:48;;;;;;;1999.90;999.90;;;;;;;20.64;80.71;98706.44;5088975;28;20097;-64
2021/07/08 03:35:22;;;;;;;1999.90;999.90;;;;;;;20.15;81.93;98701.88;5080371;28;20330;-65
2021/07/08 03:37:49;;;;;;;1999.90;999.90;;;;;;;20.19;82.91;98708.34;5087346;28;20368;-66
2021/07/08 03:40:19;;;;;;;1999.90;999.90;;;;;;;20.48;81.42;98697.44;5086092;28;20043;-65
2021/07/08 03:42:49;;;;;;;1999.90;999.90;;;;;;;20.46;81.34;98695.00;5083240;28;20044;-66
2021/07/08 03:45:17;;;;;;;1999.90;999.90;;;;;;;20.49;81.37;98691.44;5080733;28;20040;-64
2021/07/08 03:47:45;;;;;;;1999.90;999.90;;;;;;;20.09;82.77;98692.16;5075703;28;20346;-64
2021/07/08 03:50:13;;;;;;;1999.90;999.90;;;;;;;20.05;83.03;98698.53;5085823;28;20117;-64
2021/07/08 03:52:41;;;;;;;1999.90;999.90;;;;;;;20.57;81.00;98710.00;5087543;28;20047;-64
2021/07/08 03:55:14;;;;;;;1999.90;999.90;;;;;;;20.75;80.29;98721.47;5073259;28;20049;-64
2021/07/08 03:57:54;;;;;;;1999.90;999.90;;;;;;;20.99;79.75;98715.66;5085391;28;20044;-64
2021/07/08 04:00:27;;;;;;;1999.90;999.90;;;;;;;20.61;80.96;98749.34;5085502;28;20048;-64
2021/07/08 04:02:54;;;;;;;1999.90;999.90;;;;;;;20.58;81.97;98776.22;5084264;28;20071;-64
2021/07/08 04:05:21;;;;;;;1999.90;999.90;;;;;;;20.86;81.29;98785.41;5082538;28;20060;-64
2021/07/08 04:07:48;;;;;;;1999.90;999.90;;;;;;;21.01;80.04;98770.28;5080520;28;20101;-64
2021/07/08 04:10:15;;;;;;;1999.90;999.90;;;;;;;20.79;80.73;98768.47;5088016;28;20056;-64
2021/07/08 04:12:41;;;;;;;1999.90;999.90;;;;;;;20.97;81.27;98769.44;5087868;28;20101;-64
2021/07/08 04:15:08;;;;;;;1999.90;999.90;;;;;;;21.08;80.52;98769.56;5084116;28;20292;-64
2021/07/08 04:17:35;;;;;;;1999.90;999.90;;;;;;;20.43;84.05;98751.97;5074848;28;20047;-64
2021/07/08 04:20:05;;;;;;;1999.90;999.90;;;;;;;20.30;84.64;98733.75;5079844;28;20054;-64
2021/07/08 04:22:31;;;;;;;1999.90;999.90;;;;;;;19.86;88.08;98705.09;5086265;28;20052;-64
2021/07/08 04:24:58;;;;;;;1999.90;999.90;;;;;;;19.12;91.21;98683.13;5077769;28;20040;-63
2021/07/08 04:27:26;;;;;;;1999.90;999.90;;;;;;;19.23;93.12;98652.44;5079173;28;20048;-64
2021/07/08 04:29:53;;;;;;;1999.90;999.90;;;;;;;19.18;92.33;98633.97;5083679;28;20051;-64
2021/07/08 04:32:20;;;;;;;1999.90;999.90;;;;;;;18.88;93.58;98648.69;5082028;28;20422;-65
2021/07/08 04:34:47;;;;;;;1999.90;999.90;;;;;;;18.44;96.48;98646.28;5087272;28;20047;-64
2021/07/08 04:37:13;;;;;;;1999.90;999.90;;;;;;;19.29;93.06;98648.97;5086257;28;20054;-65
2021/07/08 04:39:40;;;;;;;1999.90;999.90;;;;;;;19.44;91.22;98658.41;5079887;28;20036;-65
2021/07/08 04:42:07;;;;;;;1999.90;999.90;;;;;;;19.58;88.56;98669.00;5069794;28;20048;-64
2021/07/08 04:44:34;;;;;;;1999.90;999.90;;;;;;;19.09;92.56;98672.66;5085627;28;20044;-65
2021/07/08 04:47:01;;;;;;;1999.90;999.90;;;;;;;18.34;94.54;98675.69;5092095;28;20048;-64
2021/07/08 04:49:28;;;;;;;1999.90;999.90;;;;;;;17.90;100.00;98681.59;5077137;28;20040;-65
2021/07/08 04:51:55;;;;;;;1999.90;999.90;;;;;;;18.65;97.70;98683.09;5086876;28;20048;-65
2021/07/08 04:54:21;;;;;;;1999.90;999.90;;;;;;;19.15;94.03;98683.16;5093406;28;20051;-65
2021/07/08 04:56:48;;;;;;;1999.90;999.90;;;;;;;19.68;91.44;98679.56;5079469;28;20063;-65
2021/07/08 04:59:14;;;;;;;1999.90;999.90;;;;;;;19.51;91.77;98682.91;5086024;28;20114;-65
2021/07/08 05:01:41;;;;;;;1999.90;999.90;;;;;;;19.84;90.96;98682.25;5087482;28;20431;-65
2021/07/08 05:04:08;;;;;;;1999.90;999.90;;;;;;;20.13;89.63;98681.81;5088291;28;20095;-66
2021/07/08 05:06:34;;;;;;;1999.90;999.90;;;;;;;19.45;93.61;98681.63;5092728;28;20048;-64
2021/07/08 05:09:01;;;;;;;1999.90;999.90;;;;;;;19.93;91.75;98676.31;5083794;28;20047;-64
2021/07/08 05:11:28;;;;;;;1999.90;999.90;;;;;;;20.08;91.88;98674.50;5076703;28;20048;-64
2021/07/08 05:13:54;;;;;;;1999.90;999.90;;;;;;;19.97;92.46;98673.56;5090142;28;20068;-64
2021/07/08 05:16:21;;;;;;;1999.90;999.90;;;;;;;20.67;91.07;98683.22;5083804;28;20081;-64
2021/07/08 05:18:48;;;;;;;1999.90;999.90;;;;;;;20.70;90.01;98676.84;5076542;28;20392;-64
2021/07/08 05:21:15;;;;;;;1999.90;999.90;;;;;;;21.23;87.83;98683.34;5087795;28;20087;-64
2021/07/08 05:23:42;;;;;;;1999.90;999.90;;;;;;;19.93;90.41;98679.13;5087677;28;20044;-64
2021/07/08 05:26:08;;;;;;;1999.90;999.90;;;;;;;19.95;91.33;98687.97;5074468;28;20048;-64
2021/07/08 05:28:35;;;;;;;1999.90;999.90;;;;;;;20.55;90.16;98675.84;5082107;28;20040;-64
2021/07/08 05:31:01;;;;;;;1999.90;999.90;;;;;;;20.72;87.20;98680.09;5081632;28;20051;-65
2021/07/08 05:33:28;;;;;;;1999.90;999.90;;;;;;;20.44;88.35;98686.19;5074008;28;20052;-65
2021/07/08 05:35:54;;;;;;;1999.90;999.90;;;;;;;20.17;89.64;98689.06;5089368;28;20603;-65
2021/07/08 05:38:21;;;;;;;1999.90;999.90;;;;;;;20.54;87.19;98698.72;5085633;28;20101;-65
2021/07/08 05:40:48;;;;;;;1999.90;999.90;;;;;;;21.22;85.74;98721.91;5098784;28;20102;-65
2021/07/08 05:43:14;;;;;;;1999.90;999.90;;;;;;;21.41;84.33;98718.03;5083866;28;20074;-65
2021/07/08 05:45:41;;;;;;;1999.90;999.90;;;;;;;20.65;86.64;98705.25;5085345;28;20056;-65
2021/07/08 05:48:07;;;;;;;1999.90;999.90;;;;;;;19.85;90.43;98694.25;5085650;28;20047;-65
2021/07/08 05:50:34;;;;;;;1999.90;999.90;;;;;;;20.13;90.59;98704.25;5080549;28;20053;-65
2021/07/08 05:53:00;;;;;;;1999.90;999.90;;;;;;;21.19;85.50;98724.69;5087587;28;20063;-65
2021/07/08 05:55:27;;;;;;;1999.90;999.90;;;;;;;21.66;83.25;98720.28;5073581;28;20052;-65
2021/07/08 05:57:54;;;;;;;1999.90;999.90;;;;;;;21.78;82.43;98719.94;5078862;28;20052;-65
2021/07/08 06:00:21;;;;;;;1999.90;999.90;;;;;;;22.55;78.71;98718.31;5080703;28;20129;-65
2021/07/08 06:02:48;;;;;;;1999.90;999.90;;;;;;;22.56;77.57;98714.31;5086803;28;20380;-65
2021/07/08 06:05:16;;;;;;;1999.90;999.90;;;;;;;22.71;79.45;98706.69;5089388;28;20081;-65
2021/07/08 06:07:43;;;;;;;1999.90;999.90;;;;;;;22.94;78.51;98706.31;5083364;28;20048;-64
2021/07/08 06:10:10;;;;;;;1999.90;999.90;;;;;;;22.83;77.11;98704.28;5073603;28;20052;-64
2021/07/08 06:12:39;;;;;;;1999.90;999.90;;;;;;;21.17;81.48;98701.75;5079823;28;20048;-64
2021/07/08 06:15:06;;;;;;;1999.90;999.90;;;;;;;21.68;83.18;98697.38;5083437;28;20071;-64
2021/07/08 06:17:33;;;;;;;1999.90;999.90;;;;;;;21.68;82.31;98691.75;5085619;28;20089;-64
2021/07/08 06:20:00;;;;;;;1999.90;999.90;;;;;;;22.55;78.01;98682.47;5085095;28;20040;-64
2021/07/08 06:22:26;;;;;;;1999.90;999.90;;;;;;;22.31;79.02;98698.91;5079571;28;20044;-64
2021/07/08 06:24:53;;;;;;;1999.90;999.90;;;;;;;22.17;79.18;98696.00;5082568;28;20071;-64
2021/07/08 06:27:19;;;;;;;1999.90;999.90;;;;;;;22.76;77.53;98697.84;5079625;28;20490;-64
2021/07/08 06:29:46;;;;;;;1999.90;999.90;;;;;;;22.27;80.88;98700.06;5088298;28;20107;-64
2021/07/08 06:32:16;;;;;;;1999.90;999.90;;;;;;;22.92;77.90;98697.47;5088064;28;20421;-64
2021/07/08 06:34:42;;;;;;;1999.90;999.90;;;;;;;23.15;76.78;98694.28;5086512;28;20452;-64
2021/07/08 06:37:09;;;;;;;1999.90;999.90;;;;;;;21.93;82.44;98680.63;5079876;28;20102;-66
2021/07/08 06:39:36;;;;;;;1999.90;999.90;;;;;;;22.39;80.49;98682.03;5064492;28;20123;-65
2021/07/08 06:42:03;;;;;;;1999.90;999.90;;;;;;;22.53;80.32;98679.25;5076524;28;20048;-65
2021/07/08 06:44:29;;;;;;;1999.90;999.90;;;;;;;22.37;80.94;98679.63;5083447;28;20044;-64
2021/07/08 06:46:56;;;;;;;1999.90;999.90;;;;;;;23.01;77.63;98672.50;5100930;28;20120;-64
2021/07/08 06:49:23;;;;;;;1999.90;999.90;;;;;;;23.29;76.34;98679.38;5088684;28;20519;-65
2021/07/08 06:51:50;;;;;;;1999.90;999.90;;;;;;;22.86;75.28;98672.47;5087734;28;20044;-65
2021/07/08 06:54:16;;;;;;;1999.90;999.90;;;;;;;23.45;77.59;98671.31;5081062;28;20052;-65
2021/07/08 06:56:43;;;;;;;1999.90;999.90;;;;;;;23.82;75.58;98674.84;5078412;28;20047;-64
2021/07/08 06:59:09;;;;;;;1999.90;999.90;;;;;;;24.45;73.66;98675.03;5083028;28;20121;-65
2021/07/08 07:01:36;;;;;;;1999.90;999.90;;;;;;;24.50;72.03;98674.59;5075839;28;20074;-65
2021/07/08 07:04:03;;;;;;;1999.90;999.90;;;;;;;23.72;74.95;98676.50;5088876;28;20083;-64
2021/07/08 07:06:30;;;;;;;1999.90;999.90;;;;;;;23.89;73.91;98674.88;5087469;28;20051;-65
2021/07/08 07:08:57;;;;;;;1999.90;999.90;;;;;;;24.79;72.53;98683.75;5085148;28;20040;-65
2021/07/08 07:11:23;;;;;;;1999.90;999.90;;;;;;;24.17;72.19;98684.47;5073662;28;20109;-65
2021/07/08 07:13:50;;;;;;;1999.90;999.90;;;;;;;24.68;70.49;98690.69;5080736;28;20296;-65
2021/07/08 07:16:17;;;;;;;1999.90;999.90;;;;;;;23.37;74.64;98675.34;5075116;28;20143;-65
2021/07/08 07:18:44;;;;;;;1999.90;999.90;;;;;;;23.86;73.87;98687.81;5076224;28;20131;-65
2021/07/08 07:21:11;;;;;;;1999.90;999.90;;;;;;;24.31;73.40;98681.59;5079858;28;20048;-64
2021/07/08 07:23:39;;;;;;;1999.90;999.90;;;;;;;24.53;72.91;98689.94;5078704;28;20165;-64
2021/07/08 07:26:06;;;;;;;1999.90;999.90;;;;;;;24.13;72.35;98689.31;5079543;28;20056;-65
2021/07/08 07:28:33;;;;;;;1999.90;999.90;;;;;;;24.18;72.19;98678.41;5086790;28;20048;-65
2021/07/08 07:31:00;;;;;;;1999.90;999.90;;;;;;;24.36;72.38;98669.03;5085327;28;20097;-65
2021/07/08 07:33:27;;;;;;;1999.90;999.90;;;;;;;23.38;76.05;98668.50;5072865;28;20055;-64
2021/07/08 07:35:53;;;;;;;1999.90;999.90;;;;;;;23.62;76.09;98669.66;5079914;28;20045;-65
2021/07/08 07:38:21;;;;;;;1999.90;999.90;;;;;;;24.57;71.71;98668.91;5077028;28;20104;-65
2021/07/08 07:40:47;;;;;;;1999.90;999.90;;;;;;;25.23;70.72;98664.41;5091845;28;20080;-65
2021/07/08 07:43:14;;;;;;;1999.90;999.90;;;;;;;25.78;69.46;98665.53;5079586;28;20589;-64
2021/07/08 07:45:41;;;;;;;1999.90;999.90;;;;;;;25.58;69.69;98662.53;5085012;28;20098;-64
2021/07/08 07:48:09;;;;;;;1999.90;999.90;;;;;;;26.12;65.79;98683.81;5079269;28;20062;-64
2021/07/08 07:50:36;;;;;;;1999.90;999.90;;;;;;;26.42;66.89;98680.19;5078705;28;20075;-64
2021/07/08 07:53:04;;;;;;;1999.90;999.90;;;;;;;27.22;62.80;98674.97;5083990;28;20051;-65
2021/07/08 07:55:31;;;;;;;1999.90;999.90;;;;;;;27.12;63.37;98681.63;5090727;28;20048;-64
2021/07/08 07:58:00;;;;;;;1999.90;999.90;;;;;;;27.50;63.19;98669.28;5088639;28;20044;-64
2021/07/08 08:00:28;;;;;;;1999.90;999.90;;;;;;;27.36;64.28;98662.63;5088551;28;20336;-64
2021/07/08 08:02:56;;;;;;;1999.90;999.90;;;;;;;27.66;63.77;98660.03;5092573;28;20048;-65
2021/07/08 08:10:46;;;;;;;1999.90;999.90;;;;;;;26.21;67.23;98654.97;5083938;28;20445;-64
2021/07/08 08:13:14;;;;;;;1999.90;999.90;;;;;;;27.19;63.62;98658.00;5087913;28;20535;-65
2021/07/08 08:15:41;;;;;;;1999.90;999.90;;;;;;;27.45;61.93;98650.69;5086930;28;20326;-65
2021/07/08 08:18:08;;;;;;;1999.90;999.90;;;;;;;26.77;65.09;98655.44;5083070;28;20048;-65
2021/07/08 08:20:35;;;;;;;1999.90;999.90;;;;;;;26.53;64.68;98651.72;5078997;28;20175;-65
2021/07/08 08:23:02;;;;;;;1999.90;999.90;;;;;;;27.05;63.36;98653.38;5089751;28;20051;-64
2021/07/08 08:25:30;;;;;;;1999.90;999.90;;;;;;;27.27;62.28;98655.84;5087218;28;20044;-64
2021/07/08 08:27:58;;;;;;;1999.90;999.90;;;;;;;27.52;63.22;98655.44;5075738;28;20066;-66
2021/07/08 08:30:26;;;;;;;1999.90;999.90;;;;;;;27.03;63.81;98650.94;5091812;28;20044;-66
2021/07/08 08:32:52;;;;;;;1999.90;999.90;;;;;;;26.83;63.94;98653.72;5084683;28;20047;-66
2021/07/08 08:35:20;;;;;;;1999.90;999.90;;;;;;;26.21;66.70;98647.25;5094956;28;20044;-65
2021/07/08 08:37:48;;;;;;;1999.90;999.90;;;;;;;25.91;67.38;98645.97;5081821;28;20118;-65
2021/07/08 08:40:15;;;;;;;1999.90;999.90;;;;;;;26.55;66.27;98649.25;5082677;28;20094;-65
2021/07/08 08:42:43;;;;;;;1999.90;999.90;;;;;;;26.20;66.37;98651.31;5082210;28;20230;-65
2021/07/08 08:45:17;;;;;;;1999.90;999.90;;;;;;;26.85;66.71;98661.78;5081296;28;20044;-65
2021/07/08 08:48:02;;;;;;;1999.90;999.90;;;;;;;27.12;64.57;98658.13;5084387;28;20136;-66
2021/07/08 08:50:38;;;;;;;1999.90;999.90;;;;;;;26.56;65.91;98655.69;5079967;28;20086;-66
2021/07/08 08:53:06;;;;;;;1999.90;999.90;;;;;;;26.11;69.49;98651.03;5080946;28;20045;-66
2021/07/08 08:55:35;;;;;;;1999.90;999.90;;;;;;;26.64;67.83;98654.38;5088134;28;20048;-65
2021/07/08 08:58:07;;;;;;;1999.90;999.90;;;;;;;26.95;65.32;98655.16;5072258;28;20321;-65
2021/07/08 09:00:35;;;;;;;1999.90;999.90;;;;;;;27.07;66.23;98650.91;5073196;28;20041;-65
2021/07/08 09:03:05;;;;;;;1999.90;999.90;;;;;;;26.65;67.49;98661.66;5078502;28;20491;-65
2021/07/08 09:05:33;;;;;;;1999.90;999.90;;;;;;;26.16;68.55;98656.25;5080706;28;20109;-66
2021/07/08 09:08:09;;;;;;;1999.90;999.90;;;;;;;25.91;69.37;98653.69;5078517;28;20105;-65
2021/07/08 09:10:36;;;;;;;1999.90;999.90;;;;;;;26.11;67.47;98659.53;5079984;28;20048;-65
2021/07/08 09:13:05;;;;;;;1999.90;999.90;;;;;;;26.95;66.36;98646.63;5081580;28;20044;-66
2021/07/08 09:15:32;;;;;;;1999.90;999.90;;;;;;;26.81;67.27;98649.69;5081486;28;20130;-66
2021/07/08 09:17:59;;;;;;;1999.90;999.90;;;;;;;27.28;66.46;98644.06;5086237;28;20041;-65
2021/07/08 09:20:27;;;;;;;1999.90;999.90;;;;;;;26.79;66.31;98646.50;5082375;28;20078;-65
2021/07/08 09:23:11;;;;;;;1999.90;999.90;;;;;;;26.29;69.21;98643.13;5079624;28;20053;-65
2021/07/08 09:25:37;;;;;;;1999.90;999.90;;;;;;;26.67;67.19;98637.34;5076254;28;20349;-65
2021/07/08 09:28:20;;;;;;;1999.90;999.90;;;;;;;26.67;67.95;98637.34;5081308;28;20341;-65
2021/07/08 09:31:04;;;;;;;1999.90;999.90;;;;;;;27.10;66.42;98633.03;5081648;28;20041;-65
2021/07/08 09:33:48;;;;;;;1999.90;999.90;;;;;;;27.04;67.66;98631.91;5072567;28;20422;-65
2021/07/08 09:36:16;;;;;;;1999.90;999.90;;;;;;;25.81;70.94;98629.91;5078988;28;20455;-66
2021/07/08 09:38:55;;;;;;;1999.90;999.90;;;;;;;26.06;69.67;98637.34;5082822;28;20426;-65
2021/07/08 09:41:22;;;;;;;;;;;;;;;26.19;69.79;98638.41;5081388;28;20054;-65
2021/07/08 09:43:49;;;;;;;1999.90;999.90;;;;;;;26.38;69.18;98627.59;5079369;28;19920;-65
2021/07/08 09:46:16;;;;;;;1999.90;999.90;;;;;;;26.43;69.56;98636.44;5085504;28;20432;-66
2021/07/08 09:49:02;;;;;;;1999.90;999.90;;;;;;;26.56;68.75;98624.50;5085074;28;20255;-66
2021/07/08 09:51:29;;;;;;;1999.90;999.90;;;;;;;26.48;67.67;98620.97;5081771;28;20093;-65
2021/07/08 09:54:05;;;;;;;1999.90;999.90;;;;;;;27.38;66.25;98619.59;5084831;28;20048;-66
2021/07/08 09:59:17;;;;;;;1999.90;999.90;;;;;;;26.65;68.73;98625.59;5058570;28;20045;-63
2021/07/08 10:01:45;;;;;;;1999.90;999.90;;;;;;;27.18;67.17;98623.16;5066418;28;20396;-64
2021/07/08 10:04:12;;;;;;;1999.90;999.90;;;;;;;27.32;67.98;98619.25;5066378;28;20103;-64
2021/07/08 10:06:40;;;;;;;1999.90;999.90;;;;;;;27.66;65.35;98620.28;5065811;28;20041;-64
2021/07/08 10:09:06;;;;;;;1999.90;999.90;;;;;;;27.63;66.36;98621.16;5067737;28;20426;-64
2021/07/08 10:11:34;;;;;;;1999.90;999.90;;;;;;;27.66;65.59;98612.59;5066088;28;20056;-64
2021/07/08 10:14:03;;;;;;;1999.90;999.90;;;;;;;28.42;65.24;98611.81;5065669;28;20128;-64
2021/07/08 10:16:32;;;;;;;1999.90;999.90;;;;;;;28.25;63.90;98610.97;5067634;28;20128;-64
2021/07/08 10:19:02;;;;;;;1999.90;999.90;;;;;;;28.48;64.55;98612.09;5065980;28;20048;-64
2021/07/08 10:21:30;;;;;;;1999.90;999.90;;;;;;;28.94;62.46;98613.06;5066396;28;20087;-64
2021/07/08 10:24:00;;;;;;;1999.90;999.90;;;;;;;29.40;63.12;98603.78;5067716;28;20329;-64
2021/07/08 10:26:26;;;;;;;1999.90;999.90;;;;;;;29.19;62.93;98602.28;5065926;28;20048;-64
2021/07/08 10:28:56;;;;;;;1999.90;999.90;;;;;;;29.83;62.35;98594.91;5066576;28;20060;-64
2021/07/08 10:31:23;;;;;;;1999.90;999.90;;;;;;;30.24;59.87;98595.31;5067260;28;20079;-66
2021/07/08 10:34:08;;;;;;;1999.90;999.90;;;;;;;30.25;61.09;98591.22;5065882;28;20045;-64
2021/07/08 10:36:36;;;;;;;1999.90;999.90;;;;;;;30.98;56.81;98593.41;5065473;28;20422;-64
2021/07/08 10:39:08;;;;;;;1999.90;999.90;;;;;;;28.73;60.49;98594.50;5066744;28;20067;-65
2021/07/08 10:41:35;;;;;;;1999.90;999.90;;;;;;;28.44;63.57;98580.91;5066163;28;20084;-64
2021/07/08 10:44:02;;;;;;;1999.90;999.90;;;;;;;30.51;60.25;98591.28;5065597;28;20380;-64
2021/07/08 10:46:48;;;;;;;1999.90;999.90;;;;;;;29.85;60.43;98586.69;5064698;28;20131;-64
2021/07/08 10:49:15;;;;;;;1999.90;999.90;;;;;;;29.75;60.22;98581.28;5067502;28;20052;-64
2021/07/08 10:51:44;;;;;;;1999.90;999.90;;;;;;;30.86;58.04;98582.78;5065548;28;20041;-64
2021/07/08 10:54:25;;;;;;;1999.90;999.90;;;;;;;31.60;55.03;98567.22;5065330;28;20075;-64
2021/07/08 10:56:53;;;;;;;1999.90;999.90;;;;;;;30.19;58.34;98578.78;5066146;28;20045;-65
2021/07/08 10:59:19;;;;;;;1999.90;999.90;;;;;;;29.83;59.13;98577.81;5065395;28;20106;-64
2021/07/08 11:01:50;;;;;;;1999.90;999.90;;;;;;;29.85;59.73;98568.81;5064544;28;20269;-65
2021/07/08 11:04:42;;;;;;;1999.90;999.90;;;;;;;30.47;57.94;98577.09;5065485;28;20504;-64
2021/07/08 11:07:13;;;;;;;1999.90;999.90;;;;;;;30.88;58.50;98569.66;5056675;28;20053;-64